Time;durP1;ratioP1;P1;durP2;ratioP2;P2;SDS_P1;SDS_P2;PMS_P1;PMS_P2;Temp;Humidity;BMP_temperature;BMP_pressure;BME280_temperature;BME280_humidity;BME280_pressure;Samples;Min_cycle;Max_cycle;Signal;HPM_P1;HPM_P2
2023/01/26 00:01:24;;;;;;;51.10;18.38;;;2.10;99.90;;;;;;4976519;28;94960;-74
2023/01/26 00:03:51;;;;;;;52.28;20.33;;;2.10;99.90;;;;;;4978100;28;92392;-74
2023/01/26 00:06:20;;;;;;;54.22;20.70;;;2.10;99.90;;;;;;4994725;28;113571;-74
2023/01/26 00:08:49;;;;;;;54.70;20.65;;;2.10;99.90;;;;;;4995587;28;92881;-74
2023/01/26 00:11:30;;;;;;;54.80;19.08;;;2.10;99.90;;;;;;4995752;28;92517;-78
2023/01/26 00:13:59;;;;;;;57.90;21.88;;;2.20;99.90;;;;;;4977696;28;92477;-78
2023/01/26 00:16:27;;;;;;;54.70;19.80;;;2.20;99.90;;;;;;4995624;28;92359;-78
2023/01/26 00:18:54;;;;;;;53.65;20.25;;;2.20;99.90;;;;;;4977214;28;95732;-78
2023/01/26 00:21:22;;;;;;;50.90;19.00;;;2.20;99.90;;;;;;4995737;28;92484;-78
2023/01/26 00:23:51;;;;;;;52.45;19.98;;;2.20;99.90;;;;;;4995541;28;92381;-78
2023/01/26 00:26:23;;;;;;;51.15;18.42;;;2.20;99.90;;;;;;4959300;28;95675;-78
2023/01/26 00:28:51;;;;;;;51.97;19.00;;;2.20;99.90;;;;;;4995405;28;95529;-78
2023/01/26 00:31:21;;;;;;;52.45;19.20;;;2.20;99.90;;;;;;4977438;28;92647;-78
2023/01/26 00:33:50;;;;;;;52.78;19.95;;;2.20;99.90;;;;;;4994009;28;92545;-78
2023/01/26 00:36:17;;;;;;;48.05;17.65;;;2.20;99.90;;;;;;4977266;28;95802;-78
2023/01/26 00:38:45;;;;;;;47.47;18.42;;;2.20;99.90;;;;;;4977247;28;95667;-78
2023/01/26 00:42:05;;;;;;;55.58;20.73;;;2.20;99.90;;;;;;4995238;28;92515;-78
2023/01/26 00:44:00;;;;;;;50.65;18.13;;;2.20;99.90;;;;;;4976904;28;91736;-78
2023/01/26 00:46:27;;;;;;;53.70;18.60;;;2.20;99.90;;;;;;4977523;28;99483;-78
2023/01/26 00:48:54;;;;;;;54.33;19.10;;;2.20;99.90;;;;;;4960529;28;96098;-78
2023/01/26 00:51:21;;;;;;;46.55;18.08;;;2.20;99.90;;;;;;4976105;28;94958;-78
2023/01/26 00:53:48;;;;;;;49.95;17.63;;;2.20;99.90;;;;;;4993807;28;93197;-78
2023/01/26 00:56:15;;;;;;;53.05;18.52;;;2.20;99.90;;;;;;4977043;28;96401;-78
2023/01/26 00:58:44;;;;;;;52.75;18.48;;;2.20;99.90;;;;;;4945045;28;92503;-78
2023/01/26 01:01:11;;;;;;;50.08;18.63;;;2.20;99.90;;;;;;4960885;28;92987;-78
2023/01/26 01:03:41;;;;;;;53.50;18.75;;;2.20;99.90;;;;;;4977514;28;92566;-78
2023/01/26 01:06:08;;;;;;;50.42;18.90;;;2.20;99.90;;;;;;4994690;28;93548;-78
2023/01/26 01:08:35;;;;;;;46.05;16.48;;;2.20;99.90;;;;;;4977271;28;95667;-78
2023/01/26 01:11:08;;;;;;;48.65;17.92;;;2.20;99.90;;;;;;4976922;28;92917;-78
2023/01/26 01:13:36;;;;;;;44.78;17.25;;;2.20;99.90;;;;;;4977111;28;92486;-78
2023/01/26 01:16:09;;;;;;;51.58;18.73;;;2.20;99.90;;;;;;4959247;28;98366;-78
2023/01/26 01:18:36;;;;;;;52.80;18.38;;;2.30;99.90;;;;;;4994016;28;96148;-78
2023/01/26 01:21:08;;;;;;;49.13;16.27;;;2.20;99.90;;;;;;4976610;28;93358;-78
2023/01/26 01:23:36;;;;;;;51.15;17.45;;;2.30;99.90;;;;;;4977112;28;92534;-78
2023/01/26 01:26:03;;;;;;;45.38;17.25;;;2.30;99.90;;;;;;4994231;28;93426;-78
2023/01/26 01:28:32;;;;;;;45.38;16.67;;;2.30;99.90;;;;;;4976793;28;93237;-78
2023/01/26 01:31:02;;;;;;;47.63;17.83;;;2.30;99.90;;;;;;4976492;28;92438;-78
2023/01/26 01:33:29;;;;;;;50.03;17.52;;;2.30;99.90;;;;;;4977750;28;91786;-78
2023/01/26 01:36:04;;;;;;;45.25;16.20;;;2.30;99.90;;;;;;4994399;28;93546;-78
2023/01/26 01:38:32;;;;;;;51.72;17.38;;;2.40;99.90;;;;;;4979972;28;95386;-78
2023/01/26 01:40:59;;;;;;;44.30;17.48;;;2.30;99.90;;;;;;4996643;28;94968;-78
2023/01/26 01:43:27;;;;;;;38.47;15.48;;;2.30;99.90;;;;;;4980061;28;92539;-78
2023/01/26 01:45:55;;;;;;;40.83;16.40;;;2.30;99.90;;;;;;4997780;28;92677;-78
2023/01/26 01:48:47;;;;;;;40.83;14.98;;;2.30;99.90;;;;;;4979506;28;96100;-78
2023/01/26 01:51:26;;;;;;;46.47;16.92;;;2.30;99.90;;;;;;4998043;28;92898;-78
2023/01/26 01:53:58;;;;;;;50.58;16.05;;;2.30;99.90;;;;;;4963897;28;92614;-78
2023/01/26 01:56:28;;;;;;;43.45;14.57;;;2.30;99.90;;;;;;4997935;28;93533;-78
2023/01/26 01:58:58;;;;;;;36.50;14.32;;;2.40;99.90;;;;;;4963634;28;95561;-78
2023/01/26 02:01:26;;;;;;;43.63;14.68;;;2.30;99.90;;;;;;4963776;28;92449;-78
2023/01/26 02:03:59;;;;;;;43.95;16.05;;;2.40;99.90;;;;;;4997942;28;92424;-78
2023/01/26 02:06:37;;;;;;;48.70;16.63;;;2.40;99.90;;;;;;4962230;28;98729;-78
2023/01/26 02:09:05;;;;;;;37.33;14.55;;;2.40;99.90;;;;;;4997566;28;95699;-78
2023/01/26 02:11:39;;;;;;;40.03;15.70;;;2.40;99.90;;;;;;4997749;28;92950;-78
2023/01/26 02:14:09;;;;;;;36.85;14.40;;;2.40;99.90;;;;;;4963517;28;92556;-78
2023/01/26 02:16:38;;;;;;;33.97;14.27;;;2.40;99.90;;;;;;4997428;28;93665;-78
2023/01/26 02:19:16;;;;;;;34.67;14.45;;;2.40;99.90;;;;;;4978651;28;95990;-74
2023/01/26 02:21:46;;;;;;;29.98;13.00;;;2.50;99.90;;;;;;4979990;28;92418;-74
2023/01/26 02:24:24;;;;;;;32.40;14.63;;;2.50;99.90;;;;;;4996237;28;91779;-74
2023/01/26 02:26:53;;;;;;;34.78;14.18;;;2.50;99.90;;;;;;4997493;28;93050;-75
2023/01/26 02:29:21;;;;;;;29.88;13.20;;;2.50;99.90;;;;;;4997002;28;93176;-74
2023/01/26 02:31:48;;;;;;;32.55;13.88;;;2.50;99.90;;;;;;4996242;28;94851;-73
2023/01/26 02:34:15;;;;;;;33.08;12.63;;;2.50;99.90;;;;;;4978835;28;93058;-75
2023/01/26 02:36:42;;;;;;;35.30;13.10;;;2.50;99.90;;;;;;4979202;28;95786;-73
2023/01/26 02:39:43;;;;;;;34.65;14.25;;;2.50;99.90;;;;;;4995616;28;95977;-73
2023/01/26 02:44:57;;;;;;;36.33;13.25;;;2.50;99.90;;;;;;4965446;28;92484;-73
2023/01/26 02:47:28;;;;;;;33.08;13.30;;;2.50;99.90;;;;;;4978149;28;95836;-73
2023/01/26 02:49:57;;;;;;;31.35;12.43;;;2.50;99.90;;;;;;4962690;28;95440;-73
2023/01/26 02:52:29;;;;;;;33.75;13.07;;;2.60;99.90;;;;;;4995739;28;92884;-73
2023/01/26 02:57:46;;;;;;;36.15;14.20;;;2.60;99.90;;;;;;4994289;28;98777;-74
2023/01/26 03:00:18;;;;;;;30.83;13.02;;;2.60;99.90;;;;;;4995133;28;98195;-74
2023/01/26 03:02:48;;;;;;;30.27;11.90;;;2.60;99.90;;;;;;4995604;28;92424;-74
2023/01/26 03:05:15;;;;;;;36.00;12.88;;;2.60;99.90;;;;;;4962546;28;92551;-74
2023/01/26 03:07:43;;;;;;;33.10;13.98;;;2.60;99.90;;;;;;4978499;28;95559;-74
2023/01/26 03:10:11;;;;;;;32.85;12.60;;;2.60;99.90;;;;;;4978502;28;95712;-74
2023/01/26 03:12:38;;;;;;;36.58;13.23;;;2.60;99.90;;;;;;4978590;28;92861;-74
2023/01/26 03:27:25;;;;;;;29.88;11.98;;;2.60;99.90;;;;;;4994913;28;96556;-74
2023/01/26 03:29:07;;;;;;;27.23;11.35;;;2.70;99.90;;;;;;4978453;28;95756;-74
2023/01/26 03:31:34;;;;;;;33.08;12.55;;;2.70;99.90;;;;;;4978014;28;95794;-74
2023/01/26 03:34:01;;;;;;;29.02;12.55;;;2.70;99.90;;;;;;4978428;28;93008;-74
2023/01/26 03:36:29;;;;;;;31.80;12.68;;;2.70;99.90;;;;;;4978251;28;93104;-73
2023/01/26 03:38:57;;;;;;;27.27;11.13;;;2.80;99.90;;;;;;4961903;28;95457;-73
2023/01/26 03:58:01;;;;;;;23.80;10.73;;;2.80;99.90;;;;;;4994650;28;92898;-73
2023/01/26 04:00:28;;;;;;;25.50;10.30;;;2.80;99.90;;;;;;4977825;28;92455;-74
2023/01/26 04:08:48;;;;;;;26.50;11.18;;;2.80;99.90;;;;;;4994860;28;92281;-74
2023/01/26 04:11:15;;;;;;;27.55;11.23;;;2.80;99.90;;;;;;4977891;28;95563;-73
2023/01/26 04:22:02;;;;;;;24.63;10.77;;;2.90;99.90;;;;;;4977691;28;95401;-74
2023/01/26 04:24:31;;;;;;;22.20;9.43;;;2.90;99.90;;;;;;4961330;28;95084;-74
2023/01/26 04:26:58;;;;;;;27.08;10.63;;;2.90;99.90;;;;;;4945626;28;92445;-74
2023/01/26 04:29:31;;;;;;;22.80;9.52;;;3.00;99.90;;;;;;4977445;28;93038;-74
2023/01/26 04:31:58;;;;;;;23.02;9.90;;;3.00;99.90;;;;;;4977824;28;95524;-73
2023/01/26 04:34:26;;;;;;;28.02;10.52;;;3.00;99.90;;;;;;4962137;28;95668;-73
2023/01/26 04:36:53;;;;;;;24.65;11.23;;;3.00;99.90;;;;;;4977750;28;92879;-74
2023/01/26 04:39:23;;;;;;;22.63;10.32;;;3.00;99.90;;;;;;4961332;28;92404;-74
2023/01/26 04:41:54;;;;;;;19.65;8.75;;;3.00;99.90;;;;;;4960329;28;96937;-73
2023/01/26 04:44:21;;;;;;;23.75;9.32;;;3.10;99.90;;;;;;4961228;28;97763;-74
2023/01/26 04:46:48;;;;;;;22.70;9.13;;;3.00;99.90;;;;;;4945616;28;92538;-73
2023/01/26 04:49:16;;;;;;;25.48;10.40;;;3.00;99.90;;;;;;4977837;28;92495;-73
2023/01/26 04:51:43;;;;;;;21.02;9.20;;;3.00;99.90;;;;;;4977016;28;95592;-73
2023/01/26 04:54:11;;;;;;;20.73;10.00;;;3.00;99.90;;;;;;4961389;28;95436;-73
2023/01/26 04:56:41;;;;;;;21.52;9.52;;;3.00;99.90;;;;;;4993834;28;92509;-73
2023/01/26 04:59:10;;;;;;;26.67;11.15;;;3.00;99.90;;;;;;4978217;28;91807;-73
2023/01/26 05:01:40;;;;;;;21.08;9.45;;;3.10;99.90;;;;;;4977030;28;95528;-74
2023/01/26 05:04:10;;;;;;;20.98;9.43;;;3.10;99.90;;;;;;4994279;28;93071;-74
2023/01/26 05:06:40;;;;;;;25.48;9.90;;;3.10;99.90;;;;;;4994147;28;95256;-74
2023/01/26 05:09:09;;;;;;;19.80;9.10;;;3.10;99.90;;;;;;4962014;28;93039;-73
2023/01/26 05:11:37;;;;;;;20.35;9.32;;;3.10;99.90;;;;;;4976724;28;95394;-74
2023/01/26 05:14:20;;;;;;;23.50;9.13;;;3.10;99.90;;;;;;4977438;28;95391;-73
2023/01/26 05:17:05;;;;;;;21.08;8.52;;;3.10;99.90;;;;;;4994518;28;92543;-74
2023/01/26 05:19:55;;;;;;;19.63;8.82;;;3.10;99.90;;;;;;4977050;28;93244;-73
2023/01/26 05:22:36;;;;;;;22.80;8.82;;;3.20;99.90;;;;;;4977405;28;95636;-73
2023/01/26 05:25:21;;;;;;;22.67;9.35;;;3.20;99.90;;;;;;4995352;28;92539;-73
2023/01/26 05:27:57;;;;;;;16.92;8.35;;;3.20;99.90;;;;;;4977620;28;92428;-73
2023/01/26 05:30:24;;;;;;;19.15;8.77;;;3.20;99.90;;;;;;4993896;28;92572;-73
2023/01/26 05:32:52;;;;;;;20.52;8.73;;;3.20;99.90;;;;;;4959902;28;96592;-73
2023/01/26 05:35:20;;;;;;;21.48;9.02;;;3.20;99.90;;;;;;4960946;28;96610;-74
2023/01/26 05:37:47;;;;;;;19.38;8.90;;;3.20;99.90;;;;;;4961016;28;92692;-73
2023/01/26 05:40:15;;;;;;;20.92;9.13;;;3.20;99.90;;;;;;4977420;28;92634;-74
2023/01/26 05:42:43;;;;;;;22.85;9.75;;;3.30;99.90;;;;;;4977238;28;95683;-73
2023/01/26 05:45:20;;;;;;;18.00;8.23;;;3.30;99.90;;;;;;4947329;28;95834;-73
2023/01/26 05:47:50;;;;;;;19.35;8.40;;;3.30;99.90;;;;;;4993705;28;92527;-74
2023/01/26 05:50:17;;;;;;;17.15;7.47;;;3.30;99.90;;;;;;4977431;28;91768;-73
2023/01/26 05:53:05;;;;;;;17.42;8.32;;;3.30;99.90;;;;;;4994831;28;93959;-74
2023/01/26 05:55:34;;;;;;;20.33;8.25;;;3.30;99.90;;;;;;4960936;28;95771;-74
2023/01/26 05:58:01;;;;;;;15.38;7.93;;;3.30;99.90;;;;;;4992829;28;95355;-74
2023/01/26 06:00:28;;;;;;;16.13;8.23;;;3.40;99.90;;;;;;4993463;28;92564;-74
2023/01/26 06:03:03;;;;;;;21.13;8.48;;;3.40;99.90;;;;;;4946615;28;95295;-74
2023/01/26 06:05:30;;;;;;;18.38;8.30;;;3.40;99.90;;;;;;4976731;28;95717;-74
2023/01/26 06:07:58;;;;;;;18.33;7.95;;;3.40;99.90;;;;;;4993452;28;92485;-73
2023/01/26 06:10:29;;;;;;;19.70;8.18;;;3.50;99.90;;;;;;4976889;28;92554;-74
2023/01/26 06:13:15;;;;;;;21.50;8.43;;;3.50;99.90;;;;;;4962951;28;95988;-74
2023/01/26 06:15:51;;;;;;;17.17;8.15;;;3.50;99.90;;;;;;4976730;28;94568;-74
2023/01/26 06:18:22;;;;;;;19.48;8.38;;;3.50;99.90;;;;;;4976702;28;92515;-74
2023/01/26 06:20:52;;;;;;;21.33;8.32;;;3.50;99.90;;;;;;4976565;28;92475;-74
2023/01/26 06:23:19;;;;;;;19.88;7.75;;;3.50;99.90;;;;;;4959762;28;98323;-74
2023/01/26 06:25:46;;;;;;;28.88;8.75;;;3.50;99.90;;;;;;4963257;28;96713;-74
2023/01/26 06:28:13;;;;;;;20.98;9.25;;;3.50;99.90;;;;;;4980020;28;92655;-73
2023/01/26 06:30:40;;;;;;;27.27;10.65;;;3.60;99.90;;;;;;4979864;28;92570;-73
2023/01/26 06:33:11;;;;;;;22.10;9.05;;;3.50;99.90;;;;;;4947531;28;96438;-74
2023/01/26 06:35:38;;;;;;;21.67;10.45;;;3.60;99.90;;;;;;4979674;28;95727;-74
2023/01/26 06:38:10;;;;;;;19.60;8.18;;;3.60;99.90;;;;;;4979325;28;92461;-74
2023/01/26 06:40:37;;;;;;;21.20;9.88;;;3.60;99.90;;;;;;4979864;28;91777;-74
2023/01/26 06:43:03;;;;;;;20.45;8.07;;;3.60;99.90;;;;;;4963469;28;96133;-74
2023/01/26 06:45:31;;;;;;;25.02;9.38;;;3.60;99.90;;;;;;4963557;28;95335;-74
2023/01/26 06:47:59;;;;;;;24.33;8.82;;;3.60;99.90;;;;;;4962147;28;94857;-73
2023/01/26 06:50:31;;;;;;;21.67;8.13;;;3.60;99.90;;;;;;4997767;28;92445;-74
2023/01/26 06:53:01;;;;;;;25.08;8.20;;;3.60;99.90;;;;;;4995807;28;95655;-74
2023/01/26 06:55:51;;;;;;;30.63;9.00;;;3.60;99.90;;;;;;4991233;28;94085;-74
2023/01/26 06:58:46;;;;;;;31.00;9.20;;;3.60;99.90;;;;;;4979552;28;92540;-74
2023/01/26 07:01:33;;;;;;;25.17;9.47;;;3.50;99.90;;;;;;4965369;28;92531;-73
2023/01/26 07:04:00;;;;;;;41.97;14.80;;;3.50;99.90;;;;;;4997332;28;93266;-73
2023/01/26 07:06:27;;;;;;;43.97;12.07;;;3.60;99.90;;;;;;4979230;28;93703;-74
2023/01/26 07:08:54;;;;;;;33.63;10.25;;;3.60;99.90;;;;;;4962681;28;93505;-74
2023/01/26 07:11:22;;;;;;;39.85;11.45;;;3.60;99.90;;;;;;4979059;28;92559;-74
2023/01/26 07:13:49;;;;;;;38.80;9.63;;;3.60;99.90;;;;;;4977252;28;96021;-74
2023/01/26 07:16:17;;;;;;;33.50;10.38;;;3.70;99.90;;;;;;4979021;28;98138;-74
2023/01/26 07:18:44;;;;;;;37.83;9.95;;;3.70;99.90;;;;;;4961928;28;92932;-73
2023/01/26 07:21:13;;;;;;;43.33;11.57;;;3.60;99.90;;;;;;4979576;28;92664;-74
2023/01/26 07:23:40;;;;;;;35.03;9.93;;;3.70;99.90;;;;;;4996229;28;93167;-74
2023/01/26 07:26:08;;;;;;;42.40;11.00;;;3.60;99.90;;;;;;4996944;28;93038;-74
2023/01/26 07:28:35;;;;;;;40.78;10.82;;;3.60;99.90;;;;;;4995052;28;92499;-74
2023/01/26 07:31:05;;;;;;;40.30;10.45;;;3.60;99.90;;;;;;4963351;28;91743;-73
2023/01/26 07:33:33;;;;;;;33.47;12.25;;;3.60;99.90;;;;;;4978585;28;93255;-73
2023/01/26 07:36:01;;;;;;;41.67;11.05;;;3.60;99.90;;;;;;4995722;28;93094;-74
2023/01/26 07:38:28;;;;;;;35.13;11.85;;;3.60;99.90;;;;;;4976875;28;95181;-73
2023/01/26 07:40:55;;;;;;;34.78;10.48;;;3.60;99.90;;;;;;4961668;28;92456;-73
2023/01/26 07:43:23;;;;;;;28.70;10.10;;;3.60;99.90;;;;;;4996253;28;93184;-73
2023/01/26 07:45:53;;;;;;;31.88;10.02;;;3.50;99.90;;;;;;4961931;28;95462;-73
2023/01/26 07:48:22;;;;;;;29.73;11.18;;;3.40;99.90;;;;;;4996188;28;93178;-73
2023/01/26 07:50:50;;;;;;;28.83;11.32;;;3.50;99.90;;;;;;4996061;28;92854;-73
2023/01/26 07:53:21;;;;;;;30.10;11.32;;;3.50;99.90;;;;;;4977931;28;95911;-73
2023/01/26 07:55:49;;;;;;;33.55;11.05;;;3.50;99.90;;;;;;4978016;28;94731;-73
2023/01/26 07:58:17;;;;;;;33.80;12.70;;;3.50;99.90;;;;;;4995917;28;92495;-73
2023/01/26 08:00:46;;;;;;;32.72;12.25;;;3.50;99.90;;;;;;4996167;28;92410;-73
2023/01/26 08:03:13;;;;;;;32.90;11.77;;;3.50;99.90;;;;;;4976594;28;96651;-73
2023/01/26 08:05:42;;;;;;;35.75;12.50;;;3.50;99.90;;;;;;4995685;28;94425;-74
2023/01/26 08:08:09;;;;;;;40.28;11.27;;;3.50;99.90;;;;;;4977300;28;92419;-74
2023/01/26 08:10:36;;;;;;;37.80;11.77;;;3.50;99.90;;;;;;4996041;28;92876;-74
2023/01/26 08:13:03;;;;;;;35.05;11.65;;;3.60;99.90;;;;;;4995502;28;93610;-75
2023/01/26 08:15:30;;;;;;;36.42;12.50;;;3.70;99.90;;;;;;4994392;28;94047;-74
2023/01/26 08:17:57;;;;;;;28.85;10.77;;;3.70;99.90;;;;;;4995134;28;92458;-74
2023/01/26 08:20:24;;;;;;;36.15;12.75;;;3.70;99.90;;;;;;4978173;28;91698;-75
2023/01/26 08:22:51;;;;;;;34.00;11.85;;;3.70;99.90;;;;;;4977573;28;93269;-74
2023/01/26 08:25:18;;;;;;;30.27;10.32;;;3.70;99.90;;;;;;4961689;28;93108;-74
2023/01/26 08:27:45;;;;;;;34.35;9.93;;;3.70;99.90;;;;;;4943874;28;94911;-73
2023/01/26 08:30:12;;;;;;;33.08;9.85;;;3.70;99.90;;;;;;4961968;28;92790;-73
2023/01/26 08:32:40;;;;;;;32.10;9.20;;;3.70;99.90;;;;;;4977770;28;95882;-73
2023/01/26 08:35:07;;;;;;;32.08;9.10;;;3.80;99.90;;;;;;4995569;28;93051;-74
2023/01/26 08:37:34;;;;;;;33.35;8.68;;;3.70;99.90;;;;;;4996000;28;92469;-73
2023/01/26 08:40:01;;;;;;;36.00;9.68;;;3.80;99.90;;;;;;4961447;28;92534;-74
2023/01/26 08:42:28;;;;;;;36.50;9.27;;;3.80;99.90;;;;;;4978038;28;93259;-74
2023/01/26 08:44:55;;;;;;;42.70;8.93;;;3.80;99.90;;;;;;4977981;28;95025;-74
2023/01/26 08:47:22;;;;;;;36.40;8.88;;;3.80;99.90;;;;;;4960762;28;92648;-73
2023/01/26 08:49:49;;;;;;;42.25;8.63;;;3.80;99.90;;;;;;4995691;28;92722;-74
2023/01/26 08:52:16;;;;;;;35.83;9.25;;;3.80;99.90;;;;;;4959932;28;98114;-74
2023/01/26 08:54:43;;;;;;;40.20;10.25;;;3.80;99.90;;;;;;4977845;28;95683;-74
2023/01/26 08:57:11;;;;;;;41.13;10.10;;;3.80;99.90;;;;;;4977370;28;92433;-74
2023/01/26 08:59:38;;;;;;;36.75;9.32;;;3.80;99.90;;;;;;4977642;28;92546;-74
2023/01/26 09:02:05;;;;;;;36.65;9.00;;;3.80;99.90;;;;;;4995227;28;93167;-74
2023/01/26 09:04:32;;;;;;;45.83;10.15;;;3.80;99.90;;;;;;4995047;28;93150;-74
2023/01/26 09:06:59;;;;;;;38.95;10.00;;;3.80;99.90;;;;;;4994862;28;92372;-74
2023/01/26 09:09:26;;;;;;;37.80;9.68;;;3.90;99.90;;;;;;4976059;28;91733;-74
2023/01/26 09:11:56;;;;;;;41.33;9.43;;;3.90;99.90;;;;;;4995434;28;93292;-74
2023/01/26 09:14:23;;;;;;;31.13;8.65;;;4.00;99.90;;;;;;4995344;28;93018;-74
2023/01/26 09:16:50;;;;;;;33.50;7.40;;;4.10;99.90;;;;;;4994336;28;94717;-74
2023/01/26 09:19:17;;;;;;;34.03;8.48;;;4.20;99.90;;;;;;4995319;28;93512;-74
2023/01/26 09:21:44;;;;;;;34.20;7.60;;;4.30;99.90;;;;;;4977513;28;93659;-74
2023/01/26 09:24:11;;;;;;;34.92;7.78;;;4.30;99.90;;;;;;4995134;28;93044;-74
2023/01/26 09:26:38;;;;;;;40.47;9.02;;;4.40;99.90;;;;;;4977418;28;92436;-74
2023/01/26 09:29:05;;;;;;;38.55;9.30;;;4.50;99.90;;;;;;4977789;28;92932;-74
2023/01/26 09:31:32;;;;;;;31.70;8.50;;;4.60;99.90;;;;;;4994924;28;92521;-74
2023/01/26 09:34:00;;;;;;;35.58;8.27;;;4.70;99.90;;;;;;4994412;28;93248;-74
2023/01/26 09:36:27;;;;;;;28.00;7.22;;;4.70;99.90;;;;;;4977317;28;92463;-74
2023/01/26 09:38:54;;;;;;;25.67;6.75;;;4.80;99.90;;;;;;4995280;28;92425;-74
2023/01/26 09:41:41;;;;;;;26.48;7.38;;;4.90;99.90;;;;;;4959462;28;98193;-74
2023/01/26 09:44:12;;;;;;;34.28;6.57;;;5.00;99.90;;;;;;4994501;28;95472;-75
2023/01/26 09:47:12;;;;;;;33.13;6.65;;;5.00;99.90;;;;;;4995399;28;92338;-75
2023/01/26 09:50:00;;;;;;;32.42;6.00;;;5.20;99.90;;;;;;4995327;28;92446;-74
2023/01/26 09:52:56;;;;;;;33.50;7.18;;;5.20;99.90;;;;;;4977307;28;93255;-74
2023/01/26 09:55:24;;;;;;;30.77;6.65;;;5.30;99.90;;;;;;4976968;28;95522;-75
2023/01/26 09:58:23;;;;;;;34.13;6.53;;;5.30;99.90;;;;;;4978841;28;92432;-74
2023/01/26 10:00:58;;;;;;;36.35;6.97;;;5.40;99.90;;;;;;4980822;28;92367;-74
2023/01/26 10:03:34;;;;;;;25.73;6.88;;;5.50;99.90;;;;;;4998139;28;93592;-75
2023/01/26 10:06:04;;;;;;;27.58;6.07;;;5.60;99.90;;;;;;4998253;28;92512;-75
2023/01/26 10:08:49;;;;;;;26.02;5.55;;;5.70;99.90;;;;;;4996759;28;94834;-74
2023/01/26 10:11:41;;;;;;;25.35;5.95;;;5.80;99.90;;;;;;4979877;28;92607;-75
2023/01/26 10:14:45;;;;;;;26.00;5.10;;;6.00;99.90;;;;;;4996359;28;96356;-74
2023/01/26 10:17:16;;;;;;;24.67;6.03;;;6.00;99.90;;;;;;4929429;28;94593;-74
2023/01/26 10:20:22;;;;;;;27.35;5.47;;;6.10;99.90;;;;;;4998038;28;92509;-75
2023/01/26 10:22:55;;;;;;;26.58;5.88;;;6.30;99.90;;;;;;4998250;28;92427;-74
2023/01/26 10:25:37;;;;;;;20.38;4.95;;;6.30;99.90;;;;;;4997701;28;93682;-74
2023/01/26 10:28:30;;;;;;;20.95;5.55;;;6.50;99.90;;;;;;4980745;28;91910;-74
2023/01/26 10:30:57;;;;;;;22.35;3.40;;;6.50;99.90;;;;;;4998249;28;92611;-74
2023/01/26 10:33:31;;;;;;;15.25;3.22;;;6.60;99.90;;;;;;4980086;28;92476;-74
2023/01/26 10:36:04;;;;;;;20.85;3.45;;;6.70;99.90;;;;;;4996750;28;95472;-74
2023/01/26 10:38:31;;;;;;;16.30;2.43;;;6.80;99.90;;;;;;4997712;28;95572;-74
2023/01/26 10:41:00;;;;;;;17.98;3.20;;;6.90;99.90;;;;;;4997834;28;92315;-75
2023/01/26 10:43:28;;;;;;;18.80;2.78;;;7.00;99.90;;;;;;4963047;28;99488;-74
2023/01/26 10:45:54;;;;;;;20.45;3.17;;;7.10;99.90;;;;;;4997530;28;93607;-75
2023/01/26 10:48:25;;;;;;;20.40;3.17;;;7.20;99.90;;;;;;4997273;28;93059;-75
2023/01/26 10:50:53;;;;;;;23.70;3.60;;;7.30;99.90;;;;;;4979503;28;92468;-74
2023/01/26 10:53:25;;;;;;;24.90;3.30;;;7.40;99.90;;;;;;4963637;28;91762;-75
2023/01/26 10:56:05;;;;;;;15.15;3.30;;;7.50;99.90;;;;;;4979326;28;95736;-74
2023/01/26 10:58:44;;;;;;;20.33;3.55;;;7.50;99.90;;;;;;4962999;28;95712;-74
2023/01/26 11:01:14;;;;;;;27.33;4.15;;;7.60;99.90;;;;;;4978104;28;94779;-74
2023/01/26 11:03:57;;;;;;;15.43;3.30;;;7.60;99.90;;;;;;4979526;28;92615;-74
2023/01/26 11:06:27;;;;;;;20.58;3.28;;;7.70;99.90;;;;;;4997280;28;93179;-74
2023/01/26 11:09:16;;;;;;;18.55;2.78;;;7.80;99.90;;;;;;4962626;28;93116;-74
2023/01/26 11:12:02;;;;;;;7.90;2.38;;;7.90;99.90;;;;;;4997557;28;93094;-74
2023/01/26 11:14:31;;;;;;;17.20;2.95;;;7.90;99.90;;;;;;4979426;28;92500;-74
2023/01/26 11:17:24;;;;;;;17.42;2.53;;;7.90;99.90;;;;;;4997100;28;93206;-74
2023/01/26 11:20:15;;;;;;;14.52;2.47;;;8.00;99.90;;;;;;4997070;28;93012;-75
2023/01/26 11:22:51;;;;;;;14.55;2.58;;;8.10;99.90;;;;;;4979633;28;92629;-73
2023/01/26 11:25:30;;;;;;;16.65;2.95;;;8.10;99.90;;;;;;4997101;28;92377;-73
2023/01/26 11:28:35;;;;;;;13.38;2.15;;;8.10;99.90;;;;;;4996023;28;95850;-74
2023/01/26 11:31:29;;;;;;;17.73;2.78;;;8.20;99.90;;;;;;4979132;28;95525;-74
2023/01/26 11:34:07;;;;;;;24.83;3.67;;;8.20;99.90;;;;;;4997272;28;92709;-74
2023/01/26 11:37:02;;;;;;;20.92;3.72;;;8.30;99.90;;;;;;4979248;28;92744;-73
2023/01/26 11:39:38;;;;;;;18.83;2.88;;;8.40;99.90;;;;;;4996353;28;92360;-74
2023/01/26 11:42:30;;;;;;;13.70;2.97;;;8.40;99.90;;;;;;4996565;28;93062;-73
2023/01/26 11:45:19;;;;;;;12.48;2.25;;;8.60;99.90;;;;;;4994958;28;92487;-73
2023/01/26 11:47:58;;;;;;;10.77;2.85;;;8.60;99.90;;;;;;4978836;28;91784;-73
2023/01/26 11:50:42;;;;;;;27.42;4.20;;;8.60;99.90;;;;;;4962228;28;96346;-73
2023/01/26 11:53:27;;;;;;;17.48;3.42;;;8.70;99.90;;;;;;4978578;28;96002;-73
2023/01/26 11:56:14;;;;;;;10.55;2.22;;;8.70;99.90;;;;;;4995790;28;94974;-73
2023/01/26 11:58:45;;;;;;;9.07;2.03;;;8.70;99.90;;;;;;4978359;28;92498;-73
2023/01/26 12:01:32;;;;;;;11.02;2.40;;;8.70;99.90;;;;;;4977894;28;93246;-73
2023/01/26 12:04:00;;;;;;;10.95;2.00;;;8.80;99.90;;;;;;4996554;28;93103;-73
2023/01/26 12:06:31;;;;;;;13.20;2.30;;;8.90;99.90;;;;;;4978153;28;92502;-73
2023/01/26 12:09:17;;;;;;;6.18;1.63;;;9.00;99.90;;;;;;4996469;28;92357;-73
2023/01/26 12:11:57;;;;;;;13.65;3.08;;;9.00;99.90;;;;;;4978554;28;93594;-73
2023/01/26 12:14:30;;;;;;;10.05;2.13;;;9.10;99.90;;;;;;4962083;28;95639;-73
2023/01/26 12:17:12;;;;;;;12.00;1.83;;;9.10;99.90;;;;;;4996648;28;92433;-74
2023/01/26 12:19:53;;;;;;;10.52;1.92;;;9.20;99.90;;;;;;4995934;28;92481;-74
2023/01/26 12:22:27;;;;;;;13.23;2.28;;;9.10;99.90;;;;;;4976915;28;98101;-74
2023/01/26 12:25:17;;;;;;;12.30;2.40;;;9.20;99.90;;;;;;4996063;28;95866;-73
2023/01/26 12:28:04;;;;;;;16.45;1.88;;;9.20;99.90;;;;;;4995908;28;92465;-74
2023/01/26 12:30:40;;;;;;;11.23;1.70;;;9.30;99.90;;;;;;4961689;28;92505;-73
2023/01/26 12:33:09;;;;;;;16.08;2.53;;;9.30;99.90;;;;;;4996044;28;93484;-73
2023/01/26 12:35:58;;;;;;;10.88;1.52;;;9.40;99.90;;;;;;4995483;28;93096;-73
2023/01/26 12:38:53;;;;;;;18.63;2.60;;;9.40;99.90;;;;;;4977917;28;92567;-74
2023/01/26 12:41:41;;;;;;;9.80;2.17;;;9.50;99.90;;;;;;4996315;28;92416;-74
2023/01/26 12:44:25;;;;;;;8.63;2.42;;;9.40;99.90;;;;;;4977810;28;95949;-73
2023/01/26 12:47:12;;;;;;;10.37;2.17;;;9.40;99.90;;;;;;4978231;28;92627;-74
2023/01/26 12:50:08;;;;;;;11.88;2.10;;;9.30;99.90;;;;;;4977826;28;94919;-74
2023/01/26 12:52:53;;;;;;;8.10;2.05;;;9.20;99.90;;;;;;4995667;28;92426;-73
2023/01/26 12:55:32;;;;;;;12.43;2.08;;;9.00;99.90;;;;;;4995930;28;93387;-73
2023/01/26 12:58:28;;;;;;;11.43;2.40;;;9.00;99.90;;;;;;4977813;28;93577;-74
2023/01/26 13:01:04;;;;;;;6.90;2.17;;;9.00;99.90;;;;;;4976016;28;92551;-74
2023/01/26 13:03:38;;;;;;;7.93;2.28;;;9.00;99.90;;;;;;4978011;28;92427;-73
2023/01/26 13:06:08;;;;;;;9.38;1.83;;;9.10;99.90;;;;;;4977834;28;93377;-74
2023/01/26 13:08:35;;;;;;;10.35;1.75;;;9.30;99.90;;;;;;4995277;28;93012;-73
2023/01/26 13:11:05;;;;;;;10.63;2.08;;;9.30;99.90;;;;;;4977574;28;92578;-74
2023/01/26 13:13:52;;;;;;;8.45;1.55;;;9.40;99.90;;;;;;4995321;28;92487;-73
2023/01/26 13:16:19;;;;;;;8.10;1.67;;;9.50;99.90;;;;;;4994184;28;95790;-74
2023/01/26 13:18:53;;;;;;;6.15;1.40;;;9.50;99.90;;;;;;4994774;28;95371;-74
2023/01/26 13:21:38;;;;;;;9.27;2.28;;;9.50;99.90;;;;;;4977653;28;92507;-74
2023/01/26 13:24:17;;;;;;;17.27;3.00;;;9.40;99.90;;;;;;4977430;28;92606;-74
2023/01/26 13:26:45;;;;;;;6.78;1.80;;;9.50;99.90;;;;;;4977621;28;93772;-74
2023/01/26 13:29:26;;;;;;;6.22;1.70;;;9.30;99.90;;;;;;4994607;28;104950;-74
2023/01/26 13:32:08;;;;;;;8.27;1.98;;;9.40;99.90;;;;;;4977577;28;92423;-74
2023/01/26 13:34:44;;;;;;;9.10;1.80;;;9.20;99.90;;;;;;4999284;28;91686;-74
2023/01/26 13:37:22;;;;;;;9.30;1.52;;;9.10;99.90;;;;;;4998931;28;93177;-74
2023/01/26 13:39:57;;;;;;;14.77;2.90;;;9.10;99.90;;;;;;4998451;28;93089;-74
2023/01/26 13:42:31;;;;;;;11.52;2.08;;;9.00;99.90;;;;;;4979763;28;95234;-73
2023/01/26 13:45:26;;;;;;;7.47;1.83;;;9.10;99.90;;;;;;4981209;28;92401;-74
2023/01/26 13:47:55;;;;;;;8.05;1.60;;;9.10;99.90;;;;;;4948050;28;93267;-74
2023/01/26 13:50:36;;;;;;;4.15;1.40;;;9.00;99.90;;;;;;4980810;28;93057;-74
2023/01/26 13:53:30;;;;;;;6.85;1.42;;;9.00;99.90;;;;;;4980791;28;92959;-73
2023/01/26 13:55:59;;;;;;;9.68;2.00;;;9.10;99.90;;;;;;4998596;28;92467;-74
2023/01/26 13:58:26;;;;;;;7.18;1.70;;;9.00;99.90;;;;;;4996844;28;96026;-74
2023/01/26 14:00:58;;;;;;;10.40;1.20;;;9.00;99.90;;;;;;4997368;28;93049;-74